createdAt,value
2023-04-15T00:00:01.451Z,33.48
2023-04-15T00:01:01.433Z,33.48
2023-04-15T00:02:01.327Z,33.75
2023-04-15T00:03:01.513Z,33.48
2023-04-15T00:04:01.382Z,33.43
2023-04-15T00:05:01.260Z,33.45
2023-04-15T00:06:01.256Z,33.51
2023-04-15T00:07:01.204Z,33.61
2023-04-15T00:08:01.189Z,33.56
2023-04-15T00:09:01.543Z,33.40
2023-04-15T00:10:01.185Z,33.40
2023-04-15T00:11:01.152Z,33.40
2023-04-15T00:12:01.138Z,33.59
2023-04-15T00:13:01.147Z,33.40
2023-04-15T00:14:01.180Z,33.51
2023-04-15T00:15:01.152Z,33.64
2023-04-15T00:16:01.329Z,33.35
2023-04-15T00:17:01.215Z,33.32
2023-04-15T00:18:01.215Z,33.40
2023-04-15T00:19:01.487Z,33.29
2023-04-15T00:20:01.192Z,33.21
2023-04-15T00:21:01.037Z,33.27
2023-04-15T00:22:01.043Z,33.24
2023-04-15T00:23:01.032Z,33.37
2023-04-15T00:24:01.014Z,33.43
2023-04-15T00:25:00.971Z,33.27
2023-04-15T00:26:01.005Z,33.16
2023-04-15T00:27:01.042Z,33.29
2023-04-15T00:28:00.945Z,33.37
2023-04-15T00:29:01.207Z,33.16
2023-04-15T00:30:00.911Z,33.29
2023-04-15T00:31:00.979Z,33.16
2023-04-15T00:32:00.973Z,33.32
2023-04-15T00:33:01.099Z,33.24
2023-04-15T00:34:00.962Z,33.06
2023-04-15T00:35:01.053Z,33.08
2023-04-15T00:36:01.027Z,33.11
2023-04-15T00:37:00.854Z,33.27
2023-04-15T00:38:00.943Z,33.24
2023-04-15T00:39:01.043Z,33.19
2023-04-15T00:40:00.757Z,33.11
2023-04-15T00:41:00.828Z,33.24
2023-04-15T00:42:00.730Z,33.11
2023-04-15T00:43:00.859Z,33.06
2023-04-15T00:44:00.794Z,33.11
2023-04-15T00:45:00.724Z,32.93
2023-04-15T00:46:00.815Z,32.93
2023-04-15T00:47:00.714Z,32.90
2023-04-15T00:48:00.800Z,33.03
2023-04-15T00:49:00.801Z,33.01
2023-04-15T00:50:00.711Z,32.88
2023-04-15T00:51:00.744Z,32.98
2023-04-15T00:52:00.821Z,32.93
2023-04-15T00:53:00.829Z,32.95
2023-04-15T00:54:00.807Z,32.82
2023-04-15T00:55:01.492Z,32.95
2023-04-15T00:56:00.800Z,32.88
2023-04-15T00:57:00.645Z,32.75
2023-04-15T00:58:00.598Z,32.85
2023-04-15T00:59:00.803Z,32.90
2023-04-15T01:00:00.563Z,32.80
2023-04-15T01:01:00.558Z,32.85
2023-04-15T01:02:00.588Z,32.75
2023-04-15T01:03:00.675Z,32.80
2023-04-15T01:04:00.595Z,32.72
2023-04-15T01:05:00.494Z,32.77
2023-04-15T01:06:02.987Z,32.80
2023-04-15T01:07:00.442Z,32.62
2023-04-15T01:08:00.440Z,32.57
2023-04-15T01:09:00.699Z,32.47
2023-04-15T01:10:00.424Z,32.54
2023-04-15T01:11:00.399Z,32.57
2023-04-15T01:12:00.521Z,32.42
2023-04-15T01:13:00.449Z,32.52
2023-04-15T01:14:00.326Z,32.67
2023-04-15T01:15:00.312Z,32.42
2023-04-15T01:16:00.407Z,32.39
2023-04-15T01:17:00.317Z,32.67
2023-04-15T01:18:00.422Z,32.57
2023-04-15T01:19:00.608Z,32.54
2023-04-15T01:20:00.290Z,32.49
2023-04-15T01:21:00.230Z,32.27
2023-04-15T01:22:00.234Z,32.34
2023-04-15T01:23:00.232Z,32.32
2023-04-15T01:24:00.194Z,32.39
2023-04-15T01:25:00.163Z,32.27
2023-04-15T01:26:00.165Z,32.14
2023-04-15T01:27:00.187Z,32.10
2023-04-15T01:28:00.154Z,32.05
2023-04-15T01:29:00.443Z,32.22
2023-04-15T01:30:00.202Z,31.90
2023-04-15T01:31:00.143Z,32.02
2023-04-15T01:32:00.092Z,31.85
2023-04-15T01:33:00.153Z,31.90
2023-04-15T01:34:00.091Z,31.92
2023-04-15T01:35:00.089Z,31.88
2023-04-15T01:36:00.050Z,31.85
2023-04-15T01:36:59.989Z,31.73
2023-04-15T01:37:59.983Z,31.59
2023-04-15T01:39:00.211Z,31.75
2023-04-15T01:40:00.026Z,31.61
2023-04-15T01:40:59.975Z,31.47
2023-04-15T01:41:59.962Z,31.49
2023-04-15T01:42:59.908Z,31.66
2023-04-15T01:44:00.002Z,31.52
2023-04-15T01:44:59.915Z,31.66
2023-04-15T01:45:59.925Z,31.71
2023-04-15T01:46:59.986Z,31.54
2023-04-15T01:48:00.033Z,31.59
2023-04-15T01:48:59.985Z,31.66
2023-04-15T01:49:59.901Z,31.61
2023-04-15T01:50:59.858Z,31.44
2023-04-15T01:51:59.878Z,31.56
2023-04-15T01:52:59.974Z,31.54
2023-04-15T01:53:59.789Z,31.44
2023-04-15T01:54:59.906Z,31.40
2023-04-15T01:55:59.763Z,31.59
2023-04-15T01:56:59.771Z,31.42
2023-04-15T01:57:59.786Z,31.42
2023-04-15T01:58:59.981Z,31.35
2023-04-15T01:59:59.776Z,31.44
2023-04-15T02:00:59.774Z,31.26
2023-04-15T02:01:59.782Z,31.49
2023-04-15T02:02:59.765Z,31.52
2023-04-15T02:03:59.777Z,31.49
2023-04-15T02:04:59.685Z,31.19
2023-04-15T02:05:59.642Z,31.30
2023-04-15T02:06:59.690Z,31.49
2023-04-15T02:07:59.633Z,31.21
2023-04-15T02:08:59.838Z,31.30
2023-04-15T02:09:59.666Z,31.33
2023-04-15T02:10:59.556Z,31.37
2023-04-15T02:11:59.587Z,31.44
2023-04-15T02:12:59.566Z,31.40
2023-04-15T02:13:59.568Z,31.40
2023-04-15T02:14:59.508Z,31.37
2023-04-15T02:15:59.521Z,31.35
2023-04-15T02:16:59.714Z,31.42
2023-04-15T02:17:59.566Z,31.54
2023-04-15T02:18:59.801Z,31.40
2023-04-15T02:19:59.470Z,31.42
2023-04-15T02:20:59.417Z,31.30
2023-04-15T02:21:59.512Z,31.47
2023-04-15T02:22:59.446Z,31.54
2023-04-15T02:23:59.392Z,31.33
2023-04-15T02:24:59.400Z,31.33
2023-04-15T02:25:59.371Z,31.28
2023-04-15T02:26:59.373Z,31.35
2023-04-15T02:27:59.432Z,31.14
2023-04-15T02:28:59.544Z,31.33
2023-04-15T02:29:59.397Z,31.28
2023-04-15T02:30:59.321Z,31.14
2023-04-15T02:31:59.381Z,31.28
2023-04-15T02:32:59.353Z,31.16
2023-04-15T02:33:59.346Z,31.35
2023-04-15T02:34:59.299Z,31.21
2023-04-15T02:35:59.273Z,31.33
2023-04-15T02:36:59.413Z,31.09
2023-04-15T02:37:59.258Z,31.28
2023-04-15T02:38:59.367Z,31.33
2023-04-15T02:39:59.225Z,31.21
2023-04-15T02:40:59.247Z,31.21
2023-04-15T02:41:59.188Z,31.19
2023-04-15T02:42:59.202Z,31.05
2023-04-15T02:43:59.160Z,31.09
2023-04-15T02:44:59.145Z,31.19
2023-04-15T02:45:59.191Z,31.19
2023-04-15T02:46:59.123Z,31.21
2023-04-15T02:47:59.157Z,31.00
2023-04-15T02:48:59.455Z,31.00
2023-04-15T02:49:59.095Z,31.12
2023-04-15T02:50:59.114Z,31.00
2023-04-15T02:51:59.092Z,31.19
2023-04-15T02:52:59.166Z,30.93
2023-04-15T02:53:59.109Z,30.98
2023-04-15T02:54:58.984Z,31.09
2023-04-15T02:55:59.030Z,30.93
2023-04-15T02:56:59.085Z,31.00
2023-04-15T02:57:58.976Z,30.93
2023-04-15T02:58:59.045Z,30.82
2023-04-15T02:59:58.955Z,30.93
2023-04-15T03:00:59.034Z,30.87
2023-04-15T03:01:58.937Z,30.71
2023-04-15T03:02:59.052Z,30.80
2023-04-15T03:03:59.009Z,30.80
2023-04-15T03:04:58.902Z,30.71
2023-04-15T03:05:58.851Z,30.75
2023-04-15T03:06:58.858Z,30.73
2023-04-15T03:07:58.855Z,30.60
2023-04-15T03:08:58.909Z,30.57
2023-04-15T03:09:58.855Z,30.87
2023-04-15T03:10:58.796Z,30.71
2023-04-15T03:11:58.811Z,30.78
2023-04-15T03:12:58.927Z,30.57
2023-04-15T03:13:58.867Z,30.60
2023-04-15T03:14:58.754Z,30.51
2023-04-15T03:15:58.900Z,30.57
2023-04-15T03:16:58.698Z,30.53
2023-04-15T03:17:58.747Z,30.33
2023-04-15T03:18:58.821Z,30.51
2023-04-15T03:19:58.734Z,30.46
2023-04-15T03:20:58.654Z,30.55
2023-04-15T03:21:58.724Z,30.42
2023-04-15T03:22:58.666Z,30.55
2023-04-15T03:23:58.682Z,30.64
2023-04-15T03:24:58.625Z,30.33
2023-04-15T03:25:58.626Z,30.49
2023-04-15T03:26:58.712Z,30.33
2023-04-15T03:27:58.571Z,30.24
2023-04-15T03:28:58.635Z,30.44
2023-04-15T03:29:58.592Z,30.33
2023-04-15T03:30:58.581Z,30.53
2023-04-15T03:31:58.538Z,30.29
2023-04-15T03:32:58.550Z,30.20
2023-04-15T03:33:58.515Z,30.33
2023-04-15T03:34:58.499Z,30.26
2023-04-15T03:35:58.496Z,30.20
2023-04-15T03:36:58.430Z,30.20
2023-04-15T03:37:58.463Z,30.20
2023-04-15T03:38:58.629Z,30.18
2023-04-15T03:39:58.409Z,30.05
2023-04-15T03:40:58.458Z,30.13
2023-04-15T03:41:58.394Z,30.13
2023-04-15T03:42:58.483Z,30.11
2023-04-15T03:43:58.339Z,30.00
2023-04-15T03:44:58.360Z,29.98
2023-04-15T03:45:59.733Z,30.00
2023-04-15T03:46:58.342Z,29.92
2023-04-15T03:48:11.298Z,29.90
2023-04-15T03:48:58.288Z,29.83
2023-04-15T03:49:58.281Z,29.83
2023-04-15T03:50:58.249Z,29.75
2023-04-15T03:51:58.268Z,29.85
2023-04-15T03:52:58.241Z,29.71
2023-04-15T03:53:58.221Z,29.67
2023-04-15T03:54:58.241Z,29.54
2023-04-15T03:55:58.237Z,29.77
2023-04-15T03:56:58.214Z,29.46
2023-04-15T03:57:58.196Z,29.52
2023-04-15T03:58:58.167Z,29.42
2023-04-15T03:59:58.132Z,29.39
2023-04-15T04:00:58.165Z,29.42
2023-04-15T04:01:58.168Z,29.27
2023-04-15T04:02:58.330Z,29.15
2023-04-15T04:03:58.223Z,29.19
2023-04-15T04:04:58.065Z,29.01
2023-04-15T04:05:58.088Z,29.03
2023-04-15T04:06:58.070Z,28.87
2023-04-15T04:07:58.038Z,28.91
2023-04-15T04:08:58.112Z,28.87
2023-04-15T04:09:58.092Z,28.95
2023-04-15T04:10:58.002Z,28.81
2023-04-15T04:11:58.014Z,28.69
2023-04-15T04:12:57.957Z,28.73
2023-04-15T04:13:57.981Z,28.61
2023-04-15T04:14:57.957Z,28.53
2023-04-15T04:15:58.010Z,28.53
2023-04-15T04:16:58.020Z,28.25
2023-04-15T04:17:57.975Z,28.34
2023-04-15T04:18:57.899Z,28.34
2023-04-15T04:19:57.897Z,28.25
2023-04-15T04:20:57.876Z,28.13
2023-04-15T04:21:57.836Z,28.15
2023-04-15T04:22:57.847Z,28.06
2023-04-15T04:23:57.828Z,27.94
2023-04-15T04:24:57.848Z,27.91
2023-04-15T04:25:57.798Z,27.91
2023-04-15T04:26:57.834Z,27.78
2023-04-15T04:27:57.774Z,27.63
2023-04-15T04:28:57.748Z,27.61
2023-04-15T04:29:57.740Z,27.58
2023-04-15T04:30:57.739Z,27.65
2023-04-15T04:31:57.748Z,27.41
2023-04-15T04:32:57.726Z,27.36
2023-04-15T04:33:57.673Z,27.40
2023-04-15T04:34:57.696Z,27.31
2023-04-15T04:35:57.665Z,27.27
2023-04-15T04:36:57.652Z,27.27
2023-04-15T04:37:57.681Z,27.25
2023-04-15T04:38:57.629Z,27.09
2023-04-15T04:39:57.669Z,27.17
2023-04-15T04:40:57.649Z,27.13
2023-04-15T04:41:57.648Z,27.15
2023-04-15T04:42:57.700Z,27.15
2023-04-15T04:43:57.609Z,27.29
2023-04-15T04:44:57.536Z,27.22
2023-04-15T04:45:57.664Z,27.20
2023-04-15T04:46:57.549Z,27.09
2023-04-15T04:47:57.598Z,27.09
2023-04-15T04:48:57.537Z,27.01
2023-04-15T04:49:57.499Z,27.04
2023-04-15T04:50:57.448Z,26.97
2023-04-15T04:51:57.488Z,26.92
2023-04-15T04:52:57.474Z,26.97
2023-04-15T04:53:57.427Z,26.97
2023-04-15T04:54:57.407Z,26.87
2023-04-15T04:55:57.417Z,26.85
2023-04-15T04:56:57.413Z,26.77
2023-04-15T04:57:57.369Z,26.72
2023-04-15T04:58:57.414Z,26.72
2023-04-15T04:59:57.378Z,26.58
2023-04-15T05:00:57.381Z,26.63
2023-04-15T05:01:57.397Z,26.50
2023-04-15T05:02:57.415Z,26.48
2023-04-15T05:03:57.532Z,26.40
2023-04-15T05:04:57.299Z,26.35
2023-04-15T05:05:57.253Z,26.30
2023-04-15T05:06:57.310Z,26.35
2023-04-15T05:07:57.242Z,26.26
2023-04-15T05:08:57.217Z,26.35
2023-04-15T05:09:57.210Z,26.21
2023-04-15T05:10:57.182Z,26.31
2023-04-15T05:11:57.188Z,26.25
2023-04-15T05:12:57.152Z,26.28
2023-04-15T05:13:57.172Z,26.07
2023-04-15T05:14:57.143Z,26.18
2023-04-15T05:15:57.226Z,26.20
2023-04-15T05:16:57.173Z,26.17
2023-04-15T05:17:57.166Z,26.12
2023-04-15T05:18:57.109Z,26.18
2023-04-15T05:19:57.067Z,26.25
2023-04-15T05:20:57.074Z,26.45
2023-04-15T05:21:57.042Z,26.36
2023-04-15T05:22:57.203Z,26.41
2023-04-15T05:23:57.037Z,26.46
2023-04-15T05:24:57.017Z,26.50
2023-04-15T05:25:57.004Z,26.50
2023-04-15T05:26:57.016Z,26.53
2023-04-15T05:27:57.134Z,26.63
2023-04-15T05:28:57.121Z,26.72
2023-04-15T05:29:56.965Z,26.82
2023-04-15T05:30:56.974Z,26.73
2023-04-15T05:31:56.944Z,26.89
2023-04-15T05:32:56.966Z,26.97
2023-04-15T05:33:56.937Z,26.90
2023-04-15T05:34:56.991Z,27.15
2023-04-15T05:35:56.895Z,27.04
2023-04-15T05:36:57.038Z,27.09
2023-04-15T05:37:56.959Z,27.17
2023-04-15T05:38:56.987Z,27.31
2023-04-15T05:39:56.860Z,27.47
2023-04-15T05:40:57.113Z,27.56
2023-04-15T05:41:57.071Z,27.59
2023-04-15T05:42:56.960Z,27.65
2023-04-15T05:43:56.805Z,27.80
2023-04-15T05:44:56.815Z,27.89
2023-04-15T05:45:56.816Z,28.08
2023-04-15T05:46:56.792Z,28.02
2023-04-15T05:47:56.924Z,28.32
2023-04-15T05:48:56.899Z,28.44
2023-04-15T05:49:57.198Z,28.73
2023-04-15T05:50:56.796Z,28.87
2023-04-15T05:51:56.664Z,29.09
2023-04-15T05:52:56.812Z,29.37
2023-04-15T05:53:56.948Z,29.62
2023-04-15T05:54:56.730Z,29.98
2023-04-15T05:55:56.796Z,30.24
2023-04-15T05:56:56.769Z,30.55
2023-04-15T05:57:56.560Z,30.80
2023-04-15T05:58:56.693Z,31.03
2023-04-15T05:59:56.914Z,31.05
2023-04-15T06:00:56.561Z,31.37
2023-04-15T06:01:56.685Z,31.54
2023-04-15T06:02:56.735Z,31.85
2023-04-15T06:03:56.711Z,32.00
2023-04-15T06:04:56.590Z,32.32
2023-04-15T06:05:56.613Z,32.59
2023-04-15T06:06:56.487Z,32.77
2023-04-15T06:07:56.526Z,33.16
2023-04-15T06:08:56.450Z,33.32
2023-04-15T06:09:56.792Z,33.69
2023-04-15T06:10:56.587Z,33.97
2023-04-15T06:11:56.423Z,34.30
2023-04-15T06:12:56.369Z,34.76
2023-04-15T06:13:56.379Z,35.13
2023-04-15T06:14:57.549Z,35.52
2023-04-15T06:15:56.444Z,35.83
2023-04-15T06:16:56.487Z,36.29
2023-04-15T06:17:56.365Z,36.67
2023-04-15T06:18:56.390Z,37.03
2023-04-15T06:19:57.044Z,37.42
2023-04-15T06:20:56.420Z,37.63
2023-04-15T06:21:56.326Z,37.90
2023-04-15T06:22:56.407Z,38.14
2023-04-15T06:23:56.401Z,38.38
2023-04-15T06:24:56.523Z,38.49
2023-04-15T06:25:56.282Z,38.96
2023-04-15T06:26:56.333Z,39.28
2023-04-15T06:27:56.377Z,39.43
2023-04-15T06:28:56.208Z,40.03
2023-04-15T06:29:56.173Z,40.30
2023-04-15T06:30:56.296Z,40.38
2023-04-15T06:31:56.170Z,40.38
2023-04-15T06:32:56.199Z,40.30
2023-04-15T06:33:56.131Z,40.19
2023-04-15T06:34:56.480Z,40.11
2023-04-15T06:35:56.054Z,40.62
2023-04-15T06:36:56.090Z,41.13
2023-04-15T06:37:56.080Z,41.88
2023-04-15T06:38:56.108Z,42.73
2023-04-15T06:39:56.105Z,43.71
2023-04-15T06:40:56.036Z,44.45
2023-04-15T06:41:56.122Z,44.78
2023-04-15T06:42:56.043Z,45.31
2023-04-15T06:43:55.997Z,45.76
2023-04-15T06:44:56.000Z,45.91
2023-04-15T06:45:56.031Z,46.42
2023-04-15T06:46:55.916Z,46.73
2023-04-15T06:47:55.999Z,47.26
2023-04-15T06:48:55.922Z,47.77
2023-04-15T06:49:55.867Z,48.60
2023-04-15T06:50:55.876Z,48.85
2023-04-15T06:51:55.877Z,49.00
2023-04-15T06:52:55.836Z,49.43
2023-04-15T06:53:55.845Z,49.72
2023-04-15T06:54:55.815Z,50.29
2023-04-15T06:55:55.810Z,51.00
2023-04-15T06:56:55.867Z,51.56
2023-04-15T06:57:55.774Z,52.27
2023-04-15T06:58:55.782Z,52.80
2023-04-15T06:59:55.773Z,53.40
2023-04-15T07:00:55.772Z,54.02
2023-04-15T07:01:55.767Z,54.37
2023-04-15T07:02:55.777Z,54.94
2023-04-15T07:03:55.737Z,54.98
2023-04-15T07:04:55.684Z,55.02
2023-04-15T07:05:55.678Z,55.49
2023-04-15T07:06:55.705Z,56.16
2023-04-15T07:07:55.641Z,56.92
2023-04-15T07:08:55.648Z,57.27
2023-04-15T07:09:55.609Z,57.83
2023-04-15T07:10:55.600Z,58.72
2023-04-15T07:11:55.608Z,59.13
2023-04-15T07:12:55.614Z,59.47
2023-04-15T07:13:55.588Z,59.81
2023-04-15T07:14:55.543Z,59.60
2023-04-15T07:15:55.563Z,59.38
2023-04-15T07:16:55.542Z,59.51
2023-04-15T07:17:55.582Z,59.30
2023-04-15T07:18:55.520Z,58.97
2023-04-15T07:19:55.470Z,58.88
2023-04-15T07:20:55.550Z,58.76
2023-04-15T07:21:55.453Z,58.80
2023-04-15T07:22:55.478Z,59.09
2023-04-15T07:23:55.458Z,59.81
2023-04-15T07:24:55.453Z,60.15
2023-04-15T07:25:55.533Z,60.20
2023-04-15T07:26:55.433Z,60.15
2023-04-15T07:27:55.447Z,59.98
2023-04-15T07:28:55.418Z,60.33
2023-04-15T07:29:55.390Z,60.46
2023-04-15T07:30:55.386Z,60.33
2023-04-15T07:31:55.361Z,60.11
2023-04-15T07:32:55.463Z,60.28
2023-04-15T07:33:55.316Z,60.15
2023-04-15T07:34:55.294Z,60.20
2023-04-15T07:35:55.320Z,59.81
2023-04-15T07:36:55.288Z,59.38
2023-04-15T07:37:55.252Z,59.09
2023-04-15T07:38:55.263Z,58.84
2023-04-15T07:39:55.244Z,58.35
2023-04-15T07:40:55.230Z,57.83
2023-04-15T07:41:55.195Z,57.71
2023-04-15T07:42:55.246Z,57.55
2023-04-15T07:43:55.196Z,57.47
2023-04-15T07:44:55.205Z,57.35
2023-04-15T07:45:55.232Z,57.04
2023-04-15T07:46:55.172Z,56.92
2023-04-15T07:47:55.176Z,56.50
2023-04-15T07:48:55.165Z,56.20
2023-04-15T07:49:55.173Z,56.16
2023-04-15T07:50:55.122Z,56.31
2023-04-15T07:51:55.088Z,56.31
2023-04-15T07:52:55.109Z,56.16
2023-04-15T07:53:55.119Z,55.86
2023-04-15T07:54:55.060Z,55.71
2023-04-15T07:55:55.001Z,55.49
2023-04-15T07:56:55.040Z,55.02
2023-04-15T07:57:55.023Z,54.69
2023-04-15T07:58:54.997Z,54.66
2023-04-15T07:59:54.992Z,54.62
2023-04-15T08:00:54.967Z,54.51
2023-04-15T08:01:54.974Z,54.44
2023-04-15T08:02:55.015Z,54.20
2023-04-15T08:03:55.094Z,53.74
2023-04-15T08:04:55.100Z,53.37
2023-04-15T08:05:54.938Z,53.17
2023-04-15T08:06:54.970Z,53.10
2023-04-15T08:07:54.972Z,52.76
2023-04-15T08:08:54.958Z,52.40
2023-04-15T08:09:54.847Z,52.50
2023-04-15T08:10:54.907Z,52.63
2023-04-15T08:11:54.889Z,52.33
2023-04-15T08:12:54.864Z,52.27
2023-04-15T08:13:54.869Z,52.27
2023-04-15T08:14:54.970Z,52.11
2023-04-15T08:15:54.839Z,52.43
2023-04-15T08:16:54.761Z,52.90
2023-04-15T08:17:54.826Z,53.23
2023-04-15T08:18:54.759Z,53.17
2023-04-15T08:19:54.717Z,53.17
2023-04-15T08:20:54.728Z,53.10
2023-04-15T08:21:54.766Z,53.06
2023-04-15T08:22:54.697Z,53.03
2023-04-15T08:23:54.713Z,52.93
2023-04-15T08:24:54.714Z,53.13
2023-04-15T08:25:54.741Z,53.23
2023-04-15T08:26:54.656Z,53.17
2023-04-15T08:27:54.613Z,53.13
2023-04-15T08:28:54.587Z,53.44
2023-04-15T08:29:54.697Z,53.23
2023-04-15T08:30:54.551Z,53.47
2023-04-15T08:31:54.645Z,53.40
2023-04-15T08:32:54.584Z,53.30
2023-04-15T08:33:54.534Z,53.57
2023-04-15T08:34:54.513Z,53.71
2023-04-15T08:35:54.524Z,53.64
2023-04-15T08:36:54.480Z,54.20
2023-04-15T08:37:54.562Z,54.41
2023-04-15T08:38:54.458Z,54.51
2023-04-15T08:39:54.471Z,54.41
2023-04-15T08:40:54.433Z,54.66
2023-04-15T08:41:54.387Z,54.80
2023-04-15T08:42:54.495Z,54.94
2023-04-15T08:43:54.397Z,54.84
2023-04-15T08:44:54.431Z,54.91
2023-04-15T08:45:54.351Z,54.94
2023-04-15T08:46:54.395Z,55.12
2023-04-15T08:47:54.377Z,54.94
2023-04-15T08:48:54.314Z,55.12
2023-04-15T08:49:54.313Z,55.60
2023-04-15T08:50:54.298Z,56.12
2023-04-15T08:51:54.269Z,56.62
2023-04-15T08:52:54.280Z,56.81
2023-04-15T08:53:54.295Z,56.73
2023-04-15T08:54:54.369Z,56.69
2023-04-15T08:55:54.246Z,57.00
2023-04-15T08:56:54.227Z,57.47
2023-04-15T08:57:54.204Z,57.95
2023-04-15T08:58:54.199Z,57.95
2023-04-15T08:59:54.185Z,58.55
2023-04-15T09:00:54.256Z,58.31
2023-04-15T09:01:54.217Z,58.60
2023-04-15T09:02:54.212Z,59.30
2023-04-15T09:03:54.246Z,59.98
2023-04-15T09:04:54.151Z,59.72
2023-04-15T09:05:54.117Z,59.77
2023-04-15T09:06:54.089Z,60.11
2023-04-15T09:07:54.128Z,60.15
2023-04-15T09:08:54.142Z,59.98
2023-04-15T09:09:54.024Z,60.11
2023-04-15T09:10:54.031Z,60.07
2023-04-15T09:11:54.001Z,59.98
2023-04-15T09:12:54.004Z,60.15
2023-04-15T09:13:53.976Z,59.51
2023-04-15T09:14:53.962Z,58.97
2023-04-15T09:15:53.975Z,59.47
2023-04-15T09:16:54.028Z,59.05
2023-04-15T09:17:53.962Z,58.88
2023-04-15T09:18:53.929Z,58.11
2023-04-15T09:19:53.914Z,57.71
2023-04-15T09:20:53.910Z,57.47
2023-04-15T09:21:55.018Z,57.67
2023-04-15T09:22:53.878Z,57.55
2023-04-15T09:23:53.866Z,57.47
2023-04-15T09:24:53.847Z,57.27
2023-04-15T09:25:53.860Z,56.96
2023-04-15T09:26:53.796Z,56.27
2023-04-15T09:27:53.802Z,56.31
2023-04-15T09:28:53.792Z,56.54
2023-04-15T09:29:53.837Z,56.85
2023-04-15T09:30:53.792Z,57.12
2023-04-15T09:31:53.757Z,56.54
2023-04-15T09:32:53.801Z,56.05
2023-04-15T09:33:53.731Z,55.82
2023-04-15T09:34:53.711Z,55.42
2023-04-15T09:35:53.688Z,54.84
2023-04-15T09:36:53.696Z,54.44
2023-04-15T09:37:53.701Z,54.20
2023-04-15T09:38:53.719Z,53.68
2023-04-15T09:39:53.688Z,53.30
2023-04-15T09:40:53.683Z,52.90
2023-04-15T09:41:53.697Z,52.27
2023-04-15T09:42:53.633Z,51.72
2023-04-15T09:43:53.659Z,50.90
2023-04-15T09:44:53.631Z,49.99
2023-04-15T09:45:53.666Z,49.52
2023-04-15T09:46:53.590Z,49.05
2023-04-15T09:47:53.650Z,48.46
2023-04-15T09:48:53.589Z,48.07
2023-04-15T09:49:53.578Z,48.01
2023-04-15T09:50:53.536Z,47.74
2023-04-15T09:52:04.453Z,47.33
2023-04-15T09:52:53.476Z,46.89
2023-04-15T09:53:53.449Z,46.52
2023-04-15T09:54:53.492Z,46.42
2023-04-15T09:55:53.460Z,46.37
2023-04-15T09:56:53.412Z,46.32
2023-04-15T09:57:53.410Z,46.06
2023-04-15T09:58:53.386Z,45.81
2023-04-15T09:59:53.382Z,45.61
2023-04-15T10:00:53.374Z,45.31
2023-04-15T10:01:53.452Z,45.12
2023-04-15T10:02:53.402Z,44.83
2023-04-15T10:03:53.370Z,44.40
2023-04-15T10:04:53.311Z,44.17
2023-04-15T10:05:53.292Z,43.62
2023-04-15T10:06:53.289Z,43.39
2023-04-15T10:07:53.303Z,43.21
2023-04-15T10:08:53.244Z,43.03
2023-04-15T10:09:53.261Z,43.03
2023-04-15T10:10:53.253Z,42.86
2023-04-15T10:11:53.237Z,42.73
2023-04-15T10:12:53.253Z,42.82
2023-04-15T10:13:53.228Z,42.64
2023-04-15T10:14:53.208Z,42.47
2023-04-15T10:15:53.198Z,42.30
2023-04-15T10:16:53.174Z,42.13
2023-04-15T10:17:53.211Z,41.92
2023-04-15T10:18:53.143Z,41.71
2023-04-15T10:19:53.156Z,41.38
2023-04-15T10:20:53.101Z,41.30
2023-04-15T10:21:53.080Z,41.42
2023-04-15T10:22:53.132Z,41.17
2023-04-15T10:23:53.072Z,41.22
2023-04-15T10:24:53.029Z,41.13
2023-04-15T10:25:53.046Z,41.13
2023-04-15T10:26:53.014Z,41.01
2023-04-15T10:27:53.041Z,41.01
2023-04-15T10:28:52.994Z,40.85
2023-04-15T10:29:52.986Z,40.54
2023-04-15T10:30:53.003Z,40.27
2023-04-15T10:31:53.535Z,39.96
2023-04-15T10:32:53.000Z,39.51
2023-04-15T10:33:52.918Z,39.25
2023-04-15T10:34:54.485Z,39.03
2023-04-15T10:35:52.909Z,38.92
2023-04-15T10:36:52.900Z,38.67
2023-04-15T10:37:52.971Z,38.42
2023-04-15T10:38:52.858Z,38.11
2023-04-15T10:39:52.849Z,37.83
2023-04-15T10:40:53.152Z,37.66
2023-04-15T10:41:52.832Z,37.59
2023-04-15T10:42:52.817Z,37.53
2023-04-15T10:43:52.889Z,37.26
2023-04-15T10:44:52.792Z,37.13
2023-04-15T10:45:52.749Z,37.13
2023-04-15T10:46:52.818Z,36.96
2023-04-15T10:47:52.857Z,36.83
2023-04-15T10:48:52.777Z,36.54
2023-04-15T10:49:52.761Z,36.42
2023-04-15T10:50:52.765Z,36.51
2023-04-15T10:51:52.715Z,36.70
2023-04-15T10:52:52.687Z,36.80
2023-04-15T10:53:52.836Z,36.83
2023-04-15T10:54:52.691Z,36.90
2023-04-15T10:55:52.794Z,36.96
2023-04-15T10:56:52.815Z,37.03
2023-04-15T10:57:52.648Z,37.06
2023-04-15T10:58:52.657Z,37.16
2023-04-15T10:59:52.682Z,37.33
2023-04-15T11:00:52.760Z,37.39
2023-04-15T11:01:52.868Z,37.53
2023-04-15T11:02:52.845Z,37.46
2023-04-15T11:03:52.928Z,37.33
2023-04-15T11:04:52.562Z,37.23
2023-04-15T11:05:52.511Z,37.19
2023-04-15T11:06:52.507Z,37.16
2023-04-15T11:07:52.492Z,37.39
2023-04-15T11:08:52.480Z,37.16
2023-04-15T11:09:52.512Z,37.03
2023-04-15T11:10:52.460Z,36.96
2023-04-15T11:11:52.477Z,36.93
2023-04-15T11:12:52.440Z,36.96
2023-04-15T11:13:52.404Z,36.93
2023-04-15T11:14:52.430Z,36.93
2023-04-15T11:15:52.360Z,36.87
2023-04-15T11:16:52.403Z,36.74
2023-04-15T11:17:52.474Z,36.58
2023-04-15T11:18:52.398Z,36.29
2023-04-15T11:19:52.326Z,36.13
2023-04-15T11:20:52.309Z,36.17
2023-04-15T11:21:52.377Z,35.79
2023-04-15T11:22:52.467Z,35.61
2023-04-15T11:23:52.406Z,35.28
2023-04-15T11:24:52.270Z,34.99
2023-04-15T11:25:52.244Z,34.78
2023-04-15T11:26:52.301Z,34.56
2023-04-15T11:27:52.261Z,34.33
2023-04-15T11:28:52.322Z,33.99
2023-04-15T11:29:52.248Z,33.80
2023-04-15T11:30:52.312Z,33.61
2023-04-15T11:31:52.291Z,33.51
2023-04-15T11:32:52.167Z,33.48
2023-04-15T11:33:52.151Z,33.53
2023-04-15T11:34:52.104Z,33.45
2023-04-15T11:35:52.108Z,33.24
2023-04-15T11:36:52.505Z,33.21
2023-04-15T11:37:52.075Z,33.06
2023-04-15T11:38:52.079Z,32.95
2023-04-15T11:39:52.062Z,32.93
2023-04-15T11:40:52.031Z,32.95
2023-04-15T11:41:52.073Z,32.90
2023-04-15T11:42:52.103Z,32.88
2023-04-15T11:43:52.101Z,32.80
2023-04-15T11:44:52.012Z,32.85
2023-04-15T11:45:52.026Z,32.80
2023-04-15T11:46:51.984Z,32.80
2023-04-15T11:47:51.964Z,32.57
2023-04-15T11:48:51.962Z,32.37
2023-04-15T11:49:51.937Z,32.12
2023-04-15T11:50:51.929Z,32.02
2023-04-15T11:51:51.903Z,31.75
2023-04-15T11:52:51.877Z,31.71
2023-04-15T11:53:51.915Z,31.71
2023-04-15T11:54:51.986Z,31.66
2023-04-15T11:55:51.908Z,31.47
2023-04-15T11:56:51.829Z,31.52
2023-04-15T11:57:51.842Z,31.19
2023-04-15T11:58:51.885Z,31.23
2023-04-15T11:59:51.768Z,31.07
2023-04-15T12:00:51.790Z,30.87
2023-04-15T12:01:51.776Z,30.84
2023-04-15T12:02:51.916Z,30.71
2023-04-15T12:03:51.862Z,30.71
2023-04-15T12:04:51.848Z,30.64
2023-04-15T12:05:51.792Z,30.64
2023-04-15T12:06:51.696Z,30.78
2023-04-15T12:07:51.800Z,30.71
2023-04-15T12:08:51.670Z,30.78
2023-04-15T12:09:51.664Z,30.55
2023-04-15T12:10:51.682Z,30.33
2023-04-15T12:11:51.650Z,30.31
2023-04-15T12:12:51.614Z,30.11
2023-04-15T12:13:51.585Z,30.03
2023-04-15T12:14:51.607Z,30.09
2023-04-15T12:15:51.631Z,29.96
2023-04-15T12:16:52.192Z,30.03
2023-04-15T12:17:52.385Z,30.05
2023-04-15T12:18:51.536Z,29.96
2023-04-15T12:19:51.557Z,29.92
2023-04-15T12:20:51.513Z,29.85
2023-04-15T12:21:51.524Z,29.67
2023-04-15T12:22:51.459Z,29.79
2023-04-15T12:23:51.455Z,29.69
2023-04-15T12:24:51.463Z,29.71
2023-04-15T12:25:51.465Z,29.56
2023-04-15T12:26:51.461Z,29.83
2023-04-15T12:27:51.409Z,29.69
2023-04-15T12:28:51.407Z,29.58
2023-04-15T12:29:51.390Z,29.62
2023-04-15T12:30:51.379Z,29.52
2023-04-15T12:31:51.380Z,29.62
2023-04-15T12:32:51.405Z,29.67
2023-04-15T12:33:51.404Z,29.60
2023-04-15T12:34:51.341Z,29.62
2023-04-15T12:35:51.331Z,29.64
2023-04-15T12:36:51.300Z,29.64
2023-04-15T12:37:51.286Z,29.75
2023-04-15T12:38:51.251Z,29.83
2023-04-15T12:39:51.272Z,29.81
2023-04-15T12:40:51.253Z,29.85
2023-04-15T12:41:51.244Z,29.90
2023-04-15T12:42:51.211Z,30.05
2023-04-15T12:43:51.218Z,29.90
2023-04-15T12:44:51.176Z,29.98
2023-04-15T12:45:51.191Z,30.03
2023-04-15T12:46:51.261Z,29.96
2023-04-15T12:47:51.261Z,30.00
2023-04-15T12:48:51.164Z,30.00
2023-04-15T12:49:51.147Z,29.94
2023-04-15T12:50:51.123Z,30.07
2023-04-15T12:51:51.115Z,29.85